sensor_id;sensor_type;location;lat;lon;timestamp;pressure;altitude;pressure_sealevel;temperature;humidity
10510;BME280;5303;53.266;10.410;2024-03-23T00:53:00;100618.63;;;7.67;100.00
10510;BME280;5303;53.266;10.410;2024-03-23T00:55:01;100611.31;;;7.62;100.00
10510;BME280;5303;53.266;10.410;2024-03-23T00:57:01;100605.91;;;7.57;100.00
10510;BME280;5303;53.266;10.410;2024-03-23T00:59:01;100603.16;;;7.57;100.00
10510;BME280;5303;53.266;10.410;2024-03-23T01:01:02;100611.06;;;7.59;100.00
10510;BME280;5303;53.266;10.410;2024-03-23T01:03:04;100604.50;;;7.60;100.00
10510;BME280;5303;53.266;10.410;2024-03-23T01:05:04;100612.91;;;7.63;100.00
10510;BME280;5303;53.266;10.410;2024-03-23T01:07:04;100598.53;;;7.58;100.00
10510;BME280;5303;53.266;10.410;2024-03-23T01:09:05;100589.78;;;7.56;100.00
10510;BME280;5303;53.266;10.410;2024-03-23T01:11:06;100592.81;;;7.54;100.00
10510;BME280;5303;53.266;10.410;2024-03-23T01:13:06;100597.75;;;7.52;100.00
10510;BME280;5303;53.266;10.410;2024-03-23T01:15:06;100596.44;;;7.50;100.00
10510;BME280;5303;53.266;10.410;2024-03-23T01:17:07;100597.75;;;7.52;100.00
10510;BME280;5303;53.266;10.410;2024-03-23T01:19:07;100588.47;;;7.53;100.00
10510;BME280;5303;53.266;10.410;2024-03-23T01:21:07;100590.66;;;7.51;100.00
10510;BME280;5303;53.266;10.410;2024-03-23T01:23:08;100590.13;;;7.49;100.00
10510;BME280;5303;53.266;10.410;2024-03-23T01:25:08;100590.13;;;7.49;100.00
10510;BME280;5303;53.266;10.410;2024-03-23T01:27:08;100589.31;;;7.49;100.00
10510;BME280;5303;53.266;10.410;2024-03-23T01:29:09;100586.88;;;7.47;100.00
10510;BME280;5303;53.266;10.410;2024-03-23T01:31:09;100576.53;;;7.44;100.00
10510;BME280;5303;53.266;10.410;2024-03-23T01:33:10;100584.09;;;7.52;100.00
10510;BME280;5303;53.266;10.410;2024-03-23T01:35:10;100583.34;;;7.47;100.00
10510;BME280;5303;53.266;10.410;2024-03-23T01:37:11;100584.66;;;7.49;100.00
10510;BME280;5303;53.266;10.410;2024-03-23T01:39:11;100576.78;;;7.48;100.00
10510;BME280;5303;53.266;10.410;2024-03-23T01:41:11;100563.97;;;7.43;100.00
10510;BME280;5303;53.266;10.410;2024-03-23T01:43:12;100554.38;;;7.46;100.00
10510;BME280;5303;53.266;10.410;2024-03-23T01:45:12;100552.44;;;7.46;100.00
10510;BME280;5303;53.266;10.410;2024-03-23T01:47:12;100562.84;;;7.44;100.00
10510;BME280;5303;53.266;10.410;2024-03-23T01:49:13;100565.91;;;7.43;100.00
10510;BME280;5303;53.266;10.410;2024-03-23T01:51:13;100560.13;;;7.44;100.00
10510;BME280;5303;53.266;10.410;2024-03-23T01:53:14;100547.34;;;7.40;100.00
10510;BME280;5303;53.266;10.410;2024-03-23T01:55:17;100542.16;;;7.38;100.00
10510;BME280;5303;53.266;10.410;2024-03-23T01:57:17;100535.94;;;7.32;100.00
10510;BME280;5303;53.266;10.410;2024-03-23T01:59:18;100541.66;;;7.36;100.00
10510;BME280;5303;53.266;10.410;2024-03-23T02:01:18;100545.41;;;7.40;100.00
10510;BME280;5303;53.266;10.410;2024-03-23T02:03:26;100550.81;;;7.45;100.00
10510;BME280;5303;53.266;10.410;2024-03-23T02:05:27;100536.13;;;7.41;100.00
10510;BME280;5303;53.266;10.410;2024-03-23T02:07:27;100535.81;;;7.43;100.00
10510;BME280;5303;53.266;10.410;2024-03-23T02:09:28;100528.84;;;7.31;100.00
10510;BME280;5303;53.266;10.410;2024-03-23T02:11:28;100527.59;;;7.24;100.00
10510;BME280;5303;53.266;10.410;2024-03-23T02:13:28;100525.97;;;7.23;100.00
10510;BME280;5303;53.266;10.410;2024-03-23T02:15:28;100507.47;;;7.15;100.00
10510;BME280;5303;53.266;10.410;2024-03-23T02:17:30;100506.94;;;7.13;100.00
10510;BME280;5303;53.266;10.410;2024-03-23T02:19:32;100511.91;;;7.11;100.00
10510;BME280;5303;53.266;10.410;2024-03-23T02:21:32;100513.81;;;7.10;100.00
10510;BME280;5303;53.266;10.410;2024-03-23T02:23:32;100523.97;;;7.05;100.00
10510;BME280;5303;53.266;10.410;2024-03-23T02:25:33;100528.41;;;7.01;100.00
10510;BME280;5303;53.266;10.410;2024-03-23T02:27:33;100521.91;;;6.97;100.00
10510;BME280;5303;53.266;10.410;2024-03-23T02:29:35;100507.41;;;6.96;100.00
10510;BME280;5303;53.266;10.410;2024-03-23T02:31:36;100502.78;;;6.97;100.00
10510;BME280;5303;53.266;10.410;2024-03-23T02:33:37;100499.53;;;6.95;100.00
10510;BME280;5303;53.266;10.410;2024-03-23T02:35:38;100497.38;;;6.92;100.00
10510;BME280;5303;53.266;10.410;2024-03-23T02:37:38;100496.84;;;6.90;100.00
10510;BME280;5303;53.266;10.410;2024-03-23T02:39:38;100501.50;;;6.89;100.00
10510;BME280;5303;53.266;10.410;2024-03-23T02:41:39;100506.44;;;6.87;100.00
10510;BME280;5303;53.266;10.410;2024-03-23T02:43:39;100502.84;;;6.92;100.00
10510;BME280;5303;53.266;10.410;2024-03-23T02:45:39;100495.72;;;6.91;100.00
10510;BME280;5303;53.266;10.410;2024-03-23T02:47:39;100491.41;;;6.90;100.00
10510;BME280;5303;53.266;10.410;2024-03-23T02:49:40;100486.19;;;6.88;100.00
10510;BME280;5303;53.266;10.410;2024-03-23T02:51:40;100486.50;;;6.87;100.00
10510;BME280;5303;53.266;10.410;2024-03-23T02:53:41;100489.00;;;6.83;100.00
10510;BME280;5303;53.266;10.410;2024-03-23T02:55:41;100485.47;;;6.83;100.00
10510;BME280;5303;53.266;10.410;2024-03-23T02:57:41;100499.69;;;6.80;100.00
10510;BME280;5303;53.266;10.410;2024-03-23T02:59:41;100491.03;;;6.73;100.00
10510;BME280;5303;53.266;10.410;2024-03-23T03:01:42;100488.31;;;6.73;100.00
10510;BME280;5303;53.266;10.410;2024-03-23T03:03:42;100485.28;;;6.74;100.00
10510;BME280;5303;53.266;10.410;2024-03-23T03:05:42;100487.78;;;6.71;100.00
10510;BME280;5303;53.266;10.410;2024-03-23T03:07:43;100478.47;;;6.72;100.00
10510;BME280;5303;53.266;10.410;2024-03-23T03:09:43;100480.75;;;6.64;100.00
10510;BME280;5303;53.266;10.410;2024-03-23T03:11:43;100478.31;;;6.63;100.00
10510;BME280;5303;53.266;10.410;2024-03-23T03:13:43;100472.84;;;6.63;100.00
10510;BME280;5303;53.266;10.410;2024-03-23T03:15:44;100466.56;;;6.62;100.00
10510;BME280;5303;53.266;10.410;2024-03-23T03:17:44;100472.03;;;6.62;100.00
10510;BME280;5303;53.266;10.410;2024-03-23T03:19:45;100471.22;;;6.62;100.00
10510;BME280;5303;53.266;10.410;2024-03-23T03:21:45;100472.84;;;6.63;100.00
10510;BME280;5303;53.266;10.410;2024-03-23T03:23:45;100465.75;;;6.62;100.00
10510;BME280;5303;53.266;10.410;2024-03-23T03:25:46;100457.19;;;6.68;100.00
10510;BME280;5303;53.266;10.410;2024-03-23T03:27:46;100447.97;;;6.64;100.00
10510;BME280;5303;53.266;10.410;2024-03-23T03:29:46;100451.81;;;6.63;100.00
10510;BME280;5303;53.266;10.410;2024-03-23T03:31:46;100451.22;;;6.66;100.00
10510;BME280;5303;53.266;10.410;2024-03-23T03:33:47;100447.91;;;6.69;100.00
10510;BME280;5303;53.266;10.410;2024-03-23T03:35:49;100439.72;;;6.69;100.00
10510;BME280;5303;53.266;10.410;2024-03-23T03:37:51;100432.28;;;6.75;100.00
10510;BME280;5303;53.266;10.410;2024-03-23T03:39:52;100445.66;;;6.77;100.00
10510;BME280;5303;53.266;10.410;2024-03-23T03:41:52;100446.53;;;6.72;100.00
10510;BME280;5303;53.266;10.410;2024-03-23T03:43:52;100436.56;;;6.81;100.00
10510;BME280;5303;53.266;10.410;2024-03-23T03:45:53;100436.38;;;6.78;100.00
10510;BME280;5303;53.266;10.410;2024-03-23T03:47:54;100432.63;;;6.68;100.00
10510;BME280;5303;53.266;10.410;2024-03-23T03:49:54;100437.06;;;6.64;100.00
10510;BME280;5303;53.266;10.410;2024-03-23T03:51:55;100430.50;;;6.65;100.00
10510;BME280;5303;53.266;10.410;2024-03-23T03:53:55;100426.13;;;6.64;100.00
10510;BME280;5303;53.266;10.410;2024-03-23T03:55:56;100426.72;;;6.61;100.00
10510;BME280;5303;53.266;10.410;2024-03-23T03:57:57;100424.53;;;6.63;100.00
10510;BME280;5303;53.266;10.410;2024-03-23T03:59:57;100431.59;;;6.64;100.00
10510;BME280;5303;53.266;10.410;2024-03-23T04:01:57;100423.41;;;6.64;100.00
10510;BME280;5303;53.266;10.410;2024-03-23T04:03:57;100419.13;;;6.58;100.00
10510;BME280;5303;53.266;10.410;2024-03-23T04:05:57;100419.13;;;6.58;100.00
10510;BME280;5303;53.266;10.410;2024-03-23T04:07:58;100419.63;;;6.60;100.00
10510;BME280;5303;53.266;10.410;2024-03-23T04:09:58;100414.75;;;6.57;100.00
10510;BME280;5303;53.266;10.410;2024-03-23T04:11:59;100416.91;;;6.60;100.00
10510;BME280;5303;53.266;10.410;2024-03-23T04:13:59;100416.91;;;6.60;100.00
10510;BME280;5303;53.266;10.410;2024-03-23T04:15:59;100409.53;;;6.61;100.00
10510;BME280;5303;53.266;10.410;2024-03-23T04:17:59;100416.97;;;6.55;100.00
10510;BME280;5303;53.266;10.410;2024-03-23T04:20:01;100408.25;;;6.53;100.00
10510;BME280;5303;53.266;10.410;2024-03-23T04:22:01;100406.88;;;6.56;100.00
10510;BME280;5303;53.266;10.410;2024-03-23T04:24:01;100412.31;;;6.56;100.00
10510;BME280;5303;53.266;10.410;2024-03-23T04:26:04;100404.41;;;6.54;100.00
10510;BME280;5303;53.266;10.410;2024-03-23T04:28:05;100403.31;;;6.55;100.00
10510;BME280;5303;53.266;10.410;2024-03-23T04:30:06;100404.41;;;6.54;100.00
10510;BME280;5303;53.266;10.410;2024-03-23T04:32:11;100404.72;;;6.53;100.00
10510;BME280;5303;53.266;10.410;2024-03-23T04:34:11;100404.72;;;6.53;100.00
10510;BME280;5303;53.266;10.410;2024-03-23T04:36:11;100405.53;;;6.53;100.00
10510;BME280;5303;53.266;10.410;2024-03-23T04:38:11;100404.19;;;6.51;100.00
10510;BME280;5303;53.266;10.410;2024-03-23T04:40:12;100396.28;;;6.49;100.00
10510;BME280;5303;53.266;10.410;2024-03-23T04:42:14;100398.47;;;6.47;100.00
10510;BME280;5303;53.266;10.410;2024-03-23T04:44:15;100403.94;;;6.47;100.00
10510;BME280;5303;53.266;10.410;2024-03-23T04:46:15;100396.31;;;6.44;100.00
10510;BME280;5303;53.266;10.410;2024-03-23T04:48:15;100404.75;;;6.48;100.00
10510;BME280;5303;53.266;10.410;2024-03-23T04:50:16;100390.03;;;6.49;100.00
10510;BME280;5303;53.266;10.410;2024-03-23T04:52:17;100389.41;;;6.52;100.00
10510;BME280;5303;53.266;10.410;2024-03-23T04:54:17;100407.75;;;6.51;100.00
10510;BME280;5303;53.266;10.410;2024-03-23T04:56:18;100405.81;;;6.52;100.00
10510;BME280;5303;53.266;10.410;2024-03-23T04:58:18;100400.63;;;6.50;100.00
10510;BME280;5303;53.266;10.410;2024-03-23T05:00:18;100395.69;;;6.52;100.00
10510;BME280;5303;53.266;10.410;2024-03-23T05:02:19;100380.72;;;6.50;100.00
10510;BME280;5303;53.266;10.410;2024-03-23T05:04:19;100378.84;;;6.45;100.00
10510;BME280;5303;53.266;10.410;2024-03-23T05:06:19;100368.19;;;6.49;100.00
10510;BME280;5303;53.266;10.410;2024-03-23T05:08:20;100370.16;;;6.43;100.00
10510;BME280;5303;53.266;10.410;2024-03-23T05:10:20;100379.16;;;6.44;100.00
10510;BME280;5303;53.266;10.410;2024-03-23T05:12:20;100392.81;;;6.44;100.00
10510;BME280;5303;53.266;10.410;2024-03-23T05:14:20;100397.66;;;6.47;100.00
10510;BME280;5303;53.266;10.410;2024-03-23T05:16:21;100386.75;;;6.47;100.00
10510;BME280;5303;53.266;10.410;2024-03-23T05:18:21;100394.16;;;6.46;100.00
10510;BME280;5303;53.266;10.410;2024-03-23T05:20:22;100387.03;;;6.45;100.00
10510;BME280;5303;53.266;10.410;2024-03-23T05:22:22;100385.72;;;6.43;100.00
10510;BME280;5303;53.266;10.410;2024-03-23T05:24:22;100388.13;;;6.44;100.00
10510;BME280;5303;53.266;10.410;2024-03-23T05:26:23;100381.06;;;6.43;100.00
10510;BME280;5303;53.266;10.410;2024-03-23T05:28:23;100389.78;;;6.45;100.00
10510;BME280;5303;53.266;10.410;2024-03-23T05:30:23;100388.13;;;6.44;100.00
10510;BME280;5303;53.266;10.410;2024-03-23T05:32:25;100392.19;;;6.47;100.00
10510;BME280;5303;53.266;10.410;2024-03-23T05:34:25;100382.09;;;6.47;100.00
10510;BME280;5303;53.266;10.410;2024-03-23T05:36:25;100386.47;;;6.48;100.00
10510;BME280;5303;53.266;10.410;2024-03-23T05:38:26;100383.75;;;6.48;100.00
10510;BME280;5303;53.266;10.410;2024-03-23T05:40:27;100376.91;;;6.51;100.00
10510;BME280;5303;53.266;10.410;2024-03-23T05:42:27;100379.09;;;6.49;100.00
10510;BME280;5303;53.266;10.410;2024-03-23T05:44:27;100372.81;;;6.48;100.00
10510;BME280;5303;53.266;10.410;2024-03-23T05:46:27;100360.78;;;6.49;100.00
10510;BME280;5303;53.266;10.410;2024-03-23T05:48:28;100365.09;;;6.55;100.00
10510;BME280;5303;53.266;10.410;2024-03-23T05:50:30;100360.44;;;6.56;100.00
10510;BME280;5303;53.266;10.410;2024-03-23T05:52:30;100360.72;;;6.54;100.00
10510;BME280;5303;53.266;10.410;2024-03-23T05:54:30;100358.59;;;6.51;100.00
10510;BME280;5303;53.266;10.410;2024-03-23T05:56:31;100362.94;;;6.52;100.00
10510;BME280;5303;53.266;10.410;2024-03-23T05:58:31;100354.75;;;6.52;100.00
10510;BME280;5303;53.266;10.410;2024-03-23T06:00:32;100356.31;;;6.58;100.00
10510;BME280;5303;53.266;10.410;2024-03-23T06:02:32;100359.56;;;6.60;100.00
10510;BME280;5303;53.266;10.410;2024-03-23T06:04:32;100355.72;;;6.61;100.00
10510;BME280;5303;53.266;10.410;2024-03-23T06:06:33;100355.06;;;6.69;100.00
10510;BME280;5303;53.266;10.410;2024-03-23T06:08:33;100347.19;;;6.68;100.00
10510;BME280;5303;53.266;10.410;2024-03-23T06:10:33;100349.09;;;6.67;100.00
10510;BME280;5303;53.266;10.410;2024-03-23T06:12:34;100339.22;;;6.72;100.00
10510;BME280;5303;53.266;10.410;2024-03-23T06:14:34;100334.81;;;6.76;100.00
10510;BME280;5303;53.266;10.410;2024-03-23T06:16:35;100332.78;;;6.81;100.00
10510;BME280;5303;53.266;10.410;2024-03-23T06:18:35;100330.38;;;6.80;100.00
10510;BME280;5303;53.266;10.410;2024-03-23T06:20:35;100322.63;;;6.87;100.00
10510;BME280;5303;53.266;10.410;2024-03-23T06:22:36;100331.13;;;6.85;100.00
10510;BME280;5303;53.266;10.410;2024-03-23T06:24:36;100326.50;;;6.81;100.00
10510;BME280;5303;53.266;10.410;2024-03-23T06:26:36;100331.97;;;6.81;100.00
10510;BME280;5303;53.266;10.410;2024-03-23T06:28:37;100335.19;;;6.88;100.00
10510;BME280;5303;53.266;10.410;2024-03-23T06:30:37;100338.94;;;6.92;100.00
10510;BME280;5303;53.266;10.410;2024-03-23T06:32:37;100339.69;;;6.97;100.00
10510;BME280;5303;53.266;10.410;2024-03-23T06:34:37;100336.13;;;6.97;100.00
10510;BME280;5303;53.266;10.410;2024-03-23T06:36:38;100332.50;;;7.01;100.00
10510;BME280;5303;53.266;10.410;2024-03-23T06:38:38;100339.38;;;6.99;100.00
10510;BME280;5303;53.266;10.410;2024-03-23T06:40:38;100332.28;;;6.98;100.00
10510;BME280;5303;53.266;10.410;2024-03-23T06:42:39;100339.81;;;7.06;100.00
10510;BME280;5303;53.266;10.410;2024-03-23T06:44:39;100336.00;;;7.07;100.00
10510;BME280;5303;53.266;10.410;2024-03-23T06:46:40;100328.06;;;7.05;100.00
10510;BME280;5303;53.266;10.410;2024-03-23T06:48:40;100329.13;;;7.09;100.00
10510;BME280;5303;53.266;10.410;2024-03-23T06:50:40;100338.03;;;7.15;100.00
10510;BME280;5303;53.266;10.410;2024-03-23T06:52:40;100337.97;;;7.20;100.00
10510;BME280;5303;53.266;10.410;2024-03-23T06:54:41;100346.16;;;7.20;100.00
10510;BME280;5303;53.266;10.410;2024-03-23T06:56:41;100342.34;;;7.21;100.00
10510;BME280;5303;53.266;10.410;2024-03-23T06:58:41;100348.38;;;7.18;100.00
10510;BME280;5303;53.266;10.410;2024-03-23T07:00:42;100338.47;;;7.22;100.00
10510;BME280;5303;53.266;10.410;2024-03-23T07:02:43;100332.84;;;7.32;100.00
10510;BME280;5303;53.266;10.410;2024-03-23T07:04:44;100328.44;;;7.36;100.00
10510;BME280;5303;53.266;10.410;2024-03-23T07:06:45;100337.78;;;7.49;100.00
10510;BME280;5303;53.266;10.410;2024-03-23T07:08:45;100340.84;;;7.61;100.00
10510;BME280;5303;53.266;10.410;2024-03-23T07:10:45;100339.53;;;7.58;100.00
10510;BME280;5303;53.266;10.410;2024-03-23T07:12:46;100336.28;;;7.56;100.00
10510;BME280;5303;53.266;10.410;2024-03-23T07:14:47;100335.47;;;7.56;100.00
10510;BME280;5303;53.266;10.410;2024-03-23T07:16:47;100327.00;;;7.71;100.00
10510;BME280;5303;53.266;10.410;2024-03-23T07:18:50;100325.50;;;7.78;100.00
10510;BME280;5303;53.266;10.410;2024-03-23T07:20:54;100318.84;;;7.84;100.00
10510;BME280;5303;53.266;10.410;2024-03-23T07:22:56;100320.84;;;7.79;100.00
10510;BME280;5303;53.266;10.410;2024-03-23T07:24:59;100313.97;;;7.81;100.00
10510;BME280;5303;53.266;10.410;2024-03-23T07:27:00;100305.50;;;7.96;100.00
10510;BME280;5303;53.266;10.410;2024-03-23T07:29:00;100312.66;;;7.92;100.00
10510;BME280;5303;53.266;10.410;2024-03-23T07:33:02;100314.59;;;7.92;100.00
10510;BME280;5303;53.266;10.410;2024-03-23T07:35:02;100321.09;;;7.96;100.00
10510;BME280;5303;53.266;10.410;2024-03-23T07:37:02;100317.75;;;7.99;100.00
10510;BME280;5303;53.266;10.410;2024-03-23T07:39:03;100323.22;;;7.99;100.00
10510;BME280;5303;53.266;10.410;2024-03-23T07:41:09;100312.47;;;8.02;100.00
10510;BME280;5303;53.266;10.410;2024-03-23T07:43:09;100312.88;;;7.96;100.00
10510;BME280;5303;53.266;10.410;2024-03-23T07:45:09;100312.28;;;7.99;100.00
10510;BME280;5303;53.266;10.410;2024-03-23T07:47:10;100318.94;;;8.07;100.00
10510;BME280;5303;53.266;10.410;2024-03-23T07:49:11;100307.50;;;8.04;100.00
10510;BME280;5303;53.266;10.410;2024-03-23T07:51:29;100310.16;;;8.10;100.00
10510;BME280;5303;53.266;10.410;2024-03-23T07:53:30;100312.88;;;8.10;100.00
10510;BME280;5303;53.266;10.410;2024-03-23T07:55:31;100314.19;;;7.98;100.00
10510;BME280;5303;53.266;10.410;2024-03-23T07:57:31;100302.94;;;8.00;100.00
10510;BME280;5303;53.266;10.410;2024-03-23T07:59:32;100306.00;;;7.98;100.00
10510;BME280;5303;53.266;10.410;2024-03-23T08:01:33;100303.94;;;7.90;100.00
10510;BME280;5303;53.266;10.410;2024-03-23T08:03:38;100303.13;;;7.90;100.00
10510;BME280;5303;53.266;10.410;2024-03-23T08:05:38;100306.50;;;7.87;100.00
10510;BME280;5303;53.266;10.410;2024-03-23T08:07:38;100294.13;;;7.89;100.00
10510;BME280;5303;53.266;10.410;2024-03-23T08:09:39;100290.88;;;7.87;100.00
10510;BME280;5303;53.266;10.410;2024-03-23T08:11:39;100301.53;;;7.89;100.00
10510;BME280;5303;53.266;10.410;2024-03-23T08:13:41;100301.44;;;8.08;100.00
10510;BME280;5303;53.266;10.410;2024-03-23T08:15:41;100297.19;;;8.01;100.00
10510;BME280;5303;53.266;10.410;2024-03-23T08:17:42;100299.91;;;8.01;100.00
10510;BME280;5303;53.266;10.410;2024-03-23T08:19:42;100298.59;;;8.13;100.00
10510;BME280;5303;53.266;10.410;2024-03-23T08:21:42;100298.00;;;8.16;100.00
10510;BME280;5303;53.266;10.410;2024-03-23T08:23:42;100292.63;;;8.11;100.00
10510;BME280;5303;53.266;10.410;2024-03-23T08:25:43;100297.38;;;8.19;100.00
10510;BME280;5303;53.266;10.410;2024-03-23T08:27:44;100295.34;;;8.24;100.00
10510;BME280;5303;53.266;10.410;2024-03-23T08:29:45;100295.78;;;8.31;100.00
10510;BME280;5303;53.266;10.410;2024-03-23T08:31:45;100296.50;;;8.37;100.00
10510;BME280;5303;53.266;10.410;2024-03-23T08:33:46;100290.53;;;8.35;100.00
10510;BME280;5303;53.266;10.410;2024-03-23T08:36:01;100281.59;;;8.43;100.00
10510;BME280;5303;53.266;10.410;2024-03-23T08:38:02;100291.72;;;8.42;100.00
10510;BME280;5303;53.266;10.410;2024-03-23T08:40:02;100283.97;;;8.58;100.00
10510;BME280;5303;53.266;10.410;2024-03-23T08:42:04;100287.75;;;8.62;100.00
10510;BME280;5303;53.266;10.410;2024-03-23T08:44:05;100284.91;;;8.67;100.00
10510;BME280;5303;53.266;10.410;2024-03-23T08:48:08;100282.94;;;8.81;100.00
10510;BME280;5303;53.266;10.410;2024-03-23T08:50:09;100280.88;;;8.87;100.00
10510;BME280;5303;53.266;10.410;2024-03-23T08:52:09;100276.59;;;8.94;100.00
10510;BME280;5303;53.266;10.410;2024-03-23T08:54:09;100278.66;;;8.89;100.00
10510;BME280;5303;53.266;10.410;2024-03-23T08:56:10;100287.97;;;8.88;100.00
10510;BME280;5303;53.266;10.410;2024-03-23T08:58:10;100283.69;;;8.95;100.00
10510;BME280;5303;53.266;10.410;2024-03-23T09:00:13;100288.03;;;8.96;100.00
10510;BME280;5303;53.266;10.410;2024-03-23T09:02:14;100290.50;;;8.98;100.00
10510;BME280;5303;53.266;10.410;2024-03-23T09:04:15;100286.94;;;8.97;100.00
10510;BME280;5303;53.266;10.410;2024-03-23T09:06:15;100284.78;;;9.08;100.00
10510;BME280;5303;53.266;10.410;2024-03-23T09:08:16;100284.47;;;9.09;100.00
10510;BME280;5303;53.266;10.410;2024-03-23T09:10:16;100281.59;;;9.14;100.00
10510;BME280;5303;53.266;10.410;2024-03-23T09:12:16;100286.59;;;9.12;100.00
10510;BME280;5303;53.266;10.410;2024-03-23T09:14:16;100281.47;;;9.19;100.00
10510;BME280;5303;53.266;10.410;2024-03-23T09:16:16;100282.72;;;9.35;100.00
10510;BME280;5303;53.266;10.410;2024-03-23T09:18:17;100276.97;;;9.46;100.00
10510;BME280;5303;53.266;10.410;2024-03-23T09:20:17;100280.41;;;9.51;100.00
10510;BME280;5303;53.266;10.410;2024-03-23T09:22:18;100286.41;;;9.62;100.00
10510;BME280;5303;53.266;10.410;2024-03-23T09:24:18;100281.50;;;9.72;100.00
10510;BME280;5303;53.266;10.410;2024-03-23T09:26:18;100282.31;;;9.73;100.00
10510;BME280;5303;53.266;10.410;2024-03-23T09:28:19;100284.28;;;9.81;100.00
10510;BME280;5303;53.266;10.410;2024-03-23T09:30:19;100282.66;;;9.80;100.00
10510;BME280;5303;53.266;10.410;2024-03-23T09:32:20;100280.06;;;9.75;100.00
10510;BME280;5303;53.266;10.410;2024-03-23T09:34:20;100288.88;;;9.63;100.00
10510;BME280;5303;53.266;10.410;2024-03-23T09:36:20;100281.72;;;9.54;100.00
10510;BME280;5303;53.266;10.410;2024-03-23T09:38:20;100279.72;;;9.46;100.00
10510;BME280;5303;53.266;10.410;2024-03-23T09:40:21;100282.94;;;9.48;99.41
10510;BME280;5303;53.266;10.410;2024-03-23T09:42:21;100273.75;;;9.44;99.18
10510;BME280;5303;53.266;10.410;2024-03-23T09:44:21;100278.91;;;9.45;94.77
10510;BME280;5303;53.266;10.410;2024-03-23T09:46:22;100279.47;;;9.33;94.91
10510;BME280;5303;53.266;10.410;2024-03-23T09:48:23;100274.59;;;9.30;95.04
10510;BME280;5303;53.266;10.410;2024-03-23T09:50:23;100280.41;;;9.29;97.83
10510;BME280;5303;53.266;10.410;2024-03-23T09:52:24;100272.81;;;9.26;97.90
10510;BME280;5303;53.266;10.410;2024-03-23T09:54:24;100263.47;;;9.27;95.25
10510;BME280;5303;53.266;10.410;2024-03-23T09:56:24;100259.94;;;9.35;95.74
10510;BME280;5303;53.266;10.410;2024-03-23T09:58:24;100260.97;;;9.39;94.75
10510;BME280;5303;53.266;10.410;2024-03-23T10:00:25;100253.59;;;9.48;92.28
10510;BME280;5303;53.266;10.410;2024-03-23T10:02:25;100261.50;;;9.50;90.61
10510;BME280;5303;53.266;10.410;2024-03-23T10:04:41;100248.66;;;9.59;91.17
10510;BME280;5303;53.266;10.410;2024-03-23T10:06:42;100251.09;;;9.60;93.10
10510;BME280;5303;53.266;10.410;2024-03-23T10:08:42;100246.22;;;9.57;91.06
10510;BME280;5303;53.266;10.410;2024-03-23T10:10:43;100244.66;;;9.65;95.50
10510;BME280;5303;53.266;10.410;2024-03-23T10:12:45;100234.69;;;9.69;90.43
10510;BME280;5303;53.266;10.410;2024-03-23T10:14:47;100229.53;;;9.76;85.92
10510;BME280;5303;53.266;10.410;2024-03-23T10:16:47;100239.38;;;9.77;92.09
10510;BME280;5303;53.266;10.410;2024-03-23T10:18:48;100232.03;;;9.94;87.55
10510;BME280;5303;53.266;10.410;2024-03-23T10:20:51;100233.91;;;10.16;81.33
10510;BME280;5303;53.266;10.410;2024-03-23T10:22:52;100226.69;;;10.29;85.09
10510;BME280;5303;53.266;10.410;2024-03-23T10:24:52;100245.63;;;10.47;73.81
10510;BME280;5303;53.266;10.410;2024-03-23T10:26:56;100241.75;;;10.48;60.57
10510;BME280;5303;53.266;10.410;2024-03-23T10:28:58;100231.53;;;10.40;60.17
10510;BME280;5303;53.266;10.410;2024-03-23T10:31:11;100244.94;;;10.33;58.97
10510;BME280;5303;53.266;10.410;2024-03-23T10:33:12;100247.50;;;10.21;58.87
10510;BME280;5303;53.266;10.410;2024-03-23T10:35:17;100247.28;;;10.09;59.92
10510;BME280;5303;53.266;10.410;2024-03-23T10:37:23;100245.28;;;10.01;63.14
10510;BME280;5303;53.266;10.410;2024-03-23T10:39:24;100230.44;;;10.02;68.18
10510;BME280;5303;53.266;10.410;2024-03-23T10:41:28;100239.31;;;10.08;70.63
10510;BME280;5303;53.266;10.410;2024-03-23T10:43:30;100217.25;;;10.13;70.39
10510;BME280;5303;53.266;10.410;2024-03-23T10:45:32;100226.78;;;10.15;69.98
10510;BME280;5303;53.266;10.410;2024-03-23T10:47:34;100206.78;;;10.23;67.68
10510;BME280;5303;53.266;10.410;2024-03-23T10:49:35;100221.81;;;10.34;69.79
10510;BME280;5303;53.266;10.410;2024-03-23T10:51:37;100216.22;;;10.48;67.46
10510;BME280;5303;53.266;10.410;2024-03-23T10:53:37;100224.44;;;10.48;62.48
10510;BME280;5303;53.266;10.410;2024-03-23T10:55:38;100222.81;;;10.38;62.93
10510;BME280;5303;53.266;10.410;2024-03-23T10:57:44;100218.28;;;10.34;66.18
10510;BME280;5303;53.266;10.410;2024-03-23T10:59:46;100221.69;;;10.31;68.92
10510;BME280;5303;53.266;10.410;2024-03-23T11:01:59;100217.09;;;10.18;70.56
10510;BME280;5303;53.266;10.410;2024-03-23T11:04:00;100207.09;;;10.13;73.18
10510;BME280;5303;53.266;10.410;2024-03-23T11:06:00;100218.41;;;10.12;73.50
10510;BME280;5303;53.266;10.410;2024-03-23T11:08:01;100209.19;;;10.16;74.79
10510;BME280;5303;53.266;10.410;2024-03-23T11:10:01;100205.34;;;10.17;75.55
10510;BME280;5303;53.266;10.410;2024-03-23T11:14:22;100205.53;;;10.29;74.98
10510;BME280;5303;53.266;10.410;2024-03-23T11:16:28;100199.41;;;10.41;66.67
10510;BME280;5303;53.266;10.410;2024-03-23T11:18:29;100200.69;;;10.43;65.17
10510;BME280;5303;53.266;10.410;2024-03-23T11:20:33;100197.13;;;10.51;63.78
10510;BME280;5303;53.266;10.410;2024-03-23T11:24:37;100185.66;;;10.66;62.32
10510;BME280;5303;53.266;10.410;2024-03-23T11:26:38;100189.22;;;10.76;64.06
10510;BME280;5303;53.266;10.410;2024-03-23T11:28:39;100190.03;;;10.93;65.51
10510;BME280;5303;53.266;10.410;2024-03-23T11:30:39;100187.28;;;11.02;63.96
10510;BME280;5303;53.266;10.410;2024-03-23T11:32:39;100183.38;;;11.03;64.00